sensor_id;sensor_type;location;lat;lon;timestamp;pressure;altitude;pressure_sealevel;temperature;humidity
60246;BME280;46107;53.356;-1.524;2023-04-28T19:14:15;98872.45;;;13.72;45.31
60246;BME280;46107;53.356;-1.524;2023-04-28T19:14:26;98872.17;;;13.73;45.35
60246;BME280;46107;53.356;-1.524;2023-04-28T19:16:53;98875.17;;;13.84;44.83
60246;BME280;46107;53.356;-1.524;2023-04-28T19:19:19;98875.37;;;14.39;44.35
60246;BME280;46107;53.356;-1.524;2023-04-28T19:21:46;98877.97;;;14.30;44.34
60246;BME280;46107;53.356;-1.524;2023-04-28T19:24:14;98881.11;;;13.44;46.36
60246;BME280;46107;53.356;-1.524;2023-04-28T19:26:42;98883.14;;;13.44;46.82
60246;BME280;46107;53.356;-1.524;2023-04-28T19:29:09;98888.03;;;13.59;46.00
60246;BME280;46107;53.356;-1.524;2023-04-28T19:31:37;98894.86;;;12.57;47.50
60246;BME280;46107;53.356;-1.524;2023-04-28T19:34:04;98897.87;;;12.63;48.01
60246;BME280;46107;53.356;-1.524;2023-04-28T19:36:31;98900.02;;;13.36;46.54
60246;BME280;46107;53.356;-1.524;2023-04-28T19:38:59;98912.12;;;12.33;48.41
60246;BME280;46107;53.356;-1.524;2023-04-28T19:41:27;98911.00;;;13.10;47.72
60246;BME280;46107;53.356;-1.524;2023-04-28T19:43:55;98919.00;;;12.31;48.74
60246;BME280;46107;53.356;-1.524;2023-04-28T19:46:22;98918.38;;;12.28;49.27
60246;BME280;46107;53.356;-1.524;2023-04-28T19:48:50;98918.88;;;12.18;49.54
60246;BME280;46107;53.356;-1.524;2023-04-28T19:51:17;98924.20;;;12.21;48.72
60246;BME280;46107;53.356;-1.524;2023-04-28T19:53:45;98927.05;;;12.37;49.15
60246;BME280;46107;53.356;-1.524;2023-04-28T19:56:12;98930.30;;;12.37;48.19
60246;BME280;46107;53.356;-1.524;2023-04-28T19:58:40;98928.66;;;12.18;48.60
60246;BME280;46107;53.356;-1.524;2023-04-28T20:01:07;98931.80;;;12.10;49.21
60246;BME280;46107;53.356;-1.524;2023-04-28T20:03:36;98935.15;;;12.24;48.78
60246;BME280;46107;53.356;-1.524;2023-04-28T20:06:03;98937.09;;;12.04;49.00
60246;BME280;46107;53.356;-1.524;2023-04-28T20:08:31;98939.16;;;11.75;49.49
60246;BME280;46107;53.356;-1.524;2023-04-28T20:10:59;98943.59;;;12.17;48.80
60246;BME280;46107;53.356;-1.524;2023-04-28T20:13:27;98944.74;;;11.94;49.14
60246;BME280;46107;53.356;-1.524;2023-04-28T20:15:54;98947.61;;;12.00;49.19
60246;BME280;46107;53.356;-1.524;2023-04-28T20:18:22;98951.20;;;12.29;48.36
60246;BME280;46107;53.356;-1.524;2023-04-28T20:20:52;98952.13;;;12.64;48.26
60246;BME280;46107;53.356;-1.524;2023-04-28T20:23:20;98955.34;;;12.47;48.38
60246;BME280;46107;53.356;-1.524;2023-04-28T20:25:47;98958.33;;;12.09;48.59
60246;BME280;46107;53.356;-1.524;2023-04-28T20:28:15;98956.99;;;12.17;48.43
60246;BME280;46107;53.356;-1.524;2023-04-28T20:30:42;98960.23;;;12.25;49.64
60246;BME280;46107;53.356;-1.524;2023-04-28T20:33:09;98960.39;;;11.87;49.62
60246;BME280;46107;53.356;-1.524;2023-04-28T20:35:36;98960.36;;;11.60;50.28
60246;BME280;46107;53.356;-1.524;2023-04-28T20:38:04;98964.71;;;11.13;51.74
60246;BME280;46107;53.356;-1.524;2023-04-28T20:40:32;98966.57;;;11.62;51.49
60246;BME280;46107;53.356;-1.524;2023-04-28T20:42:59;98967.97;;;11.60;50.86
60246;BME280;46107;53.356;-1.524;2023-04-28T20:45:29;98969.98;;;11.26;52.26
60246;BME280;46107;53.356;-1.524;2023-04-28T20:47:56;98970.39;;;11.12;52.43
60246;BME280;46107;53.356;-1.524;2023-04-28T20:50:25;98977.06;;;10.61;52.73
60246;BME280;46107;53.356;-1.524;2023-04-28T20:52:53;98973.78;;;11.36;51.53
60246;BME280;46107;53.356;-1.524;2023-04-28T20:55:21;98979.98;;;11.10;52.16
60246;BME280;46107;53.356;-1.524;2023-04-28T20:57:49;98983.13;;;11.43;51.15
60246;BME280;46107;53.356;-1.524;2023-04-28T21:00:16;98982.41;;;11.46;50.37
60246;BME280;46107;53.356;-1.524;2023-04-28T21:02:44;98986.09;;;11.50;49.79
60246;BME280;46107;53.356;-1.524;2023-04-28T21:05:12;98989.50;;;11.18;51.32
60246;BME280;46107;53.356;-1.524;2023-04-28T21:07:40;98985.96;;;11.63;49.73
60246;BME280;46107;53.356;-1.524;2023-04-28T21:10:08;98989.35;;;11.40;50.02
60246;BME280;46107;53.356;-1.524;2023-04-28T21:12:35;98989.19;;;11.31;50.03
60246;BME280;46107;53.356;-1.524;2023-04-28T21:15:04;98992.47;;;10.88;51.12
60246;BME280;46107;53.356;-1.524;2023-04-28T21:17:31;98994.00;;;10.23;52.76
60246;BME280;46107;53.356;-1.524;2023-04-28T21:19:59;98992.60;;;10.64;52.08
60246;BME280;46107;53.356;-1.524;2023-04-28T21:22:26;98995.42;;;10.41;52.56
60246;BME280;46107;53.356;-1.524;2023-04-28T21:24:54;98995.86;;;10.84;51.56
60246;BME280;46107;53.356;-1.524;2023-04-28T21:27:21;98993.10;;;10.78;50.89
60246;BME280;46107;53.356;-1.524;2023-04-28T21:29:49;98999.98;;;9.88;53.69
60246;BME280;46107;53.356;-1.524;2023-04-28T21:32:17;98997.32;;;10.87;52.16
60246;BME280;46107;53.356;-1.524;2023-04-28T21:34:46;98999.29;;;11.20;52.32
60246;BME280;46107;53.356;-1.524;2023-04-28T21:37:14;99001.83;;;10.79;52.33
60246;BME280;46107;53.356;-1.524;2023-04-28T21:39:42;99002.69;;;11.08;52.28
60246;BME280;46107;53.356;-1.524;2023-04-28T21:42:09;99003.77;;;10.73;51.74
60246;BME280;46107;53.356;-1.524;2023-04-28T21:44:37;99007.48;;;11.03;51.58
60246;BME280;46107;53.356;-1.524;2023-04-28T21:47:05;99007.70;;;10.81;51.91
60246;BME280;46107;53.356;-1.524;2023-04-28T21:49:32;99008.08;;;10.10;52.78
60246;BME280;46107;53.356;-1.524;2023-04-28T21:52:00;99008.50;;;10.45;53.11
60246;BME280;46107;53.356;-1.524;2023-04-28T21:54:27;99011.60;;;11.41;51.64
60246;BME280;46107;53.356;-1.524;2023-04-28T21:56:55;99015.02;;;10.80;52.27
60246;BME280;46107;53.356;-1.524;2023-04-28T21:59:22;99013.88;;;10.66;52.74
60246;BME280;46107;53.356;-1.524;2023-04-28T22:01:50;99015.18;;;10.63;52.97
60246;BME280;46107;53.356;-1.524;2023-04-28T22:04:18;99016.20;;;10.58;54.17
60246;BME280;46107;53.356;-1.524;2023-04-28T22:06:46;99018.25;;;10.52;54.36
60246;BME280;46107;53.356;-1.524;2023-04-28T22:09:14;99018.78;;;10.96;53.29
60246;BME280;46107;53.356;-1.524;2023-04-28T22:11:42;99018.52;;;11.11;53.41
60246;BME280;46107;53.356;-1.524;2023-04-28T22:14:09;99018.02;;;11.45;53.99
60246;BME280;46107;53.356;-1.524;2023-04-28T22:16:36;99019.40;;;11.15;53.92
60246;BME280;46107;53.356;-1.524;2023-04-28T22:19:04;99018.86;;;10.87;55.97
60246;BME280;46107;53.356;-1.524;2023-04-28T22:21:32;99024.45;;;11.01;55.13
60246;BME280;46107;53.356;-1.524;2023-04-28T22:23:59;99021.38;;;11.07;54.93
60246;BME280;46107;53.356;-1.524;2023-04-28T22:26:27;99022.89;;;11.04;55.00
60246;BME280;46107;53.356;-1.524;2023-04-28T22:28:54;99028.05;;;11.41;54.37
60246;BME280;46107;53.356;-1.524;2023-04-28T22:31:22;99029.13;;;11.06;54.62
60246;BME280;46107;53.356;-1.524;2023-04-28T22:33:49;99029.75;;;11.25;55.16
60246;BME280;46107;53.356;-1.524;2023-04-28T22:36:17;99034.24;;;11.33;54.70
60246;BME280;46107;53.356;-1.524;2023-04-28T22:38:44;99032.53;;;11.01;55.78
60246;BME280;46107;53.356;-1.524;2023-04-28T22:41:12;99032.71;;;11.32;54.59
60246;BME280;46107;53.356;-1.524;2023-04-28T22:43:40;99033.29;;;11.50;54.24
60246;BME280;46107;53.356;-1.524;2023-04-28T22:46:08;99030.88;;;11.44;54.21
60246;BME280;46107;53.356;-1.524;2023-04-28T22:48:36;99035.53;;;11.29;54.95
60246;BME280;46107;53.356;-1.524;2023-04-28T22:51:03;99035.82;;;10.85;56.52
60246;BME280;46107;53.356;-1.524;2023-04-28T22:53:30;99037.41;;;10.54;57.46
60246;BME280;46107;53.356;-1.524;2023-04-28T22:55:57;99038.54;;;10.88;56.69
60246;BME280;46107;53.356;-1.524;2023-04-28T22:58:25;99038.09;;;11.71;54.72
60246;BME280;46107;53.356;-1.524;2023-04-28T23:00:52;99038.18;;;11.47;54.68
60246;BME280;46107;53.356;-1.524;2023-04-28T23:03:20;99038.58;;;11.60;54.04
60246;BME280;46107;53.356;-1.524;2023-04-28T23:05:48;99041.56;;;11.48;53.82
60246;BME280;46107;53.356;-1.524;2023-04-28T23:08:16;99042.49;;;11.50;54.68
60246;BME280;46107;53.356;-1.524;2023-04-28T23:10:43;99046.58;;;11.61;55.09
60246;BME280;46107;53.356;-1.524;2023-04-28T23:13:11;99041.94;;;11.60;54.44
60246;BME280;46107;53.356;-1.524;2023-04-28T23:15:38;99044.48;;;12.09;53.91
60246;BME280;46107;53.356;-1.524;2023-04-28T23:18:06;99045.88;;;11.82;53.85
60246;BME280;46107;53.356;-1.524;2023-04-28T23:20:33;99047.62;;;11.86;53.65
60246;BME280;46107;53.356;-1.524;2023-04-28T23:23:01;99049.25;;;11.73;53.94
60246;BME280;46107;53.356;-1.524;2023-04-28T23:25:28;99050.45;;;11.47;54.01
60246;BME280;46107;53.356;-1.524;2023-04-28T23:27:55;99054.44;;;11.82;54.03
60246;BME280;46107;53.356;-1.524;2023-04-28T23:30:23;99054.30;;;11.53;54.02
60246;BME280;46107;53.356;-1.524;2023-04-28T23:32:51;99056.34;;;11.73;54.24
60246;BME280;46107;53.356;-1.524;2023-04-28T23:35:18;99051.24;;;11.61;53.79
60246;BME280;46107;53.356;-1.524;2023-04-28T23:37:46;99055.47;;;10.66;57.18
60246;BME280;46107;53.356;-1.524;2023-04-28T23:40:13;99060.04;;;11.14;55.50
60246;BME280;46107;53.356;-1.524;2023-04-28T23:42:41;99061.12;;;11.25;55.85
60246;BME280;46107;53.356;-1.524;2023-04-28T23:45:09;99060.35;;;11.39;55.42
60246;BME280;46107;53.356;-1.524;2023-04-28T23:47:36;99062.38;;;11.66;55.23
60246;BME280;46107;53.356;-1.524;2023-04-28T23:50:04;99058.51;;;12.06;53.64
60246;BME280;46107;53.356;-1.524;2023-04-28T23:52:32;99057.27;;;12.16;53.81
60246;BME280;46107;53.356;-1.524;2023-04-28T23:54:59;99055.97;;;12.04;53.86
60246;BME280;46107;53.356;-1.524;2023-04-28T23:57:27;99058.81;;;11.09;54.50
60246;BME280;46107;53.356;-1.524;2023-04-28T23:59:54;99057.63;;;12.02;54.00
